Time;durP1;ratioP1;P1;durP2;ratioP2;P2;SDS_P1;SDS_P2;PMS_P1;PMS_P2;Temp;Humidity;BMP_temperature;BMP_pressure;BME280_temperature;BME280_humidity;BME280_pressure;Samples;Min_cycle;Max_cycle;Signal;HPM_P1;HPM_P2
2022/04/28 00:00:24;;;;;;;;;;;;;;;21.84;40.09;102740.44;7284121;19;154434;-57
2022/04/28 00:02:51;;;;;;;;;;;;;;;21.84;40.41;102735.69;7284579;19;152075;-57
2022/04/28 00:05:18;;;;;;;;;;;;;;;21.80;40.23;102734.53;7291318;19;153400;-57
2022/04/28 00:07:46;;;;;;;;;;;;;;;21.81;40.29;102732.53;7281968;19;151850;-59
2022/04/28 00:10:14;;;;;;;;;;;;;;;21.78;39.98;102731.13;7285131;19;152573;-56
2022/04/28 00:12:40;;;;;;;;;;;;;;;21.74;40.07;102718.75;7283511;19;153924;-59
2022/04/28 00:15:07;;;;;;;;;;;;;;;21.73;40.49;102719.84;7282230;19;151852;-59
2022/04/28 00:17:34;;;;;;;;;;;;;;;21.74;40.28;102721.56;7284073;19;152539;-58
2022/04/28 00:20:01;;;;;;;;;;;;;;;21.70;40.21;102717.59;7282564;19;153197;-55
2022/04/28 00:22:27;;;;;;;;;;;;;;;21.71;40.55;102716.47;7281645;19;151948;-57
2022/04/28 00:24:54;;;;;;;;;;;;;;;21.68;40.50;102717.00;7283113;19;152962;-58
2022/04/28 00:27:21;;;;;;;;;;;;;;;21.65;40.49;102717.56;7290541;19;153257;-58
2022/04/28 00:29:47;;;;;;;;;;;;;;;21.64;40.02;102722.34;7283721;19;153358;-56
2022/04/28 00:32:14;;;;;;;;;;;;;;;21.63;40.38;102717.81;7282040;19;153282;-57
2022/04/28 00:34:41;;;;;;;;;;;;;;;21.61;40.26;102722.03;7282615;19;151861;-58
2022/04/28 00:37:09;;;;;;;;;;;;;;;21.59;40.53;102727.94;7283086;19;152609;-55
2022/04/28 00:39:37;;;;;;;;;;;;;;;21.57;40.28;102723.72;7281843;19;153148;-55
2022/04/28 00:42:09;;;;;;;;;;;;;;;21.54;40.67;102721.41;7278355;19;151842;-55
2022/04/28 00:44:36;;;;;;;;;;;;;;;21.54;40.61;102719.47;7280582;19;153362;-58
2022/04/28 00:47:04;;;;;;;;;;;;;;;21.53;40.85;102723.38;7278969;19;154437;-56
2022/04/28 00:52:17;;;;;;;;;;;;;;;21.49;40.81;102721.38;7281083;19;153500;-59
2022/04/28 00:54:44;;;;;;;;;;;;;;;21.47;40.93;102724.50;7282323;19;151896;-58
2022/04/28 00:57:12;;;;;;;;;;;;;;;21.46;40.80;102725.59;7280589;19;153163;-58
2022/04/28 00:59:39;;;;;;;;;;;;;;;21.47;40.79;102732.94;7280977;19;153784;-57
2022/04/28 01:02:06;;;;;;;;;;;;;;;21.46;41.03;102728.41;7280209;19;151678;-56
2022/04/28 01:04:33;;;;;;;;;;;;;;;21.42;40.81;102724.47;7283872;19;153228;-55
2022/04/28 01:07:00;;;;;;;;;;;;;;;21.39;41.25;102721.34;7282456;19;154224;-57
2022/04/28 01:09:27;;;;;;;;;;;;;;;21.37;41.42;102720.75;7289177;19;151955;-57
2022/04/28 01:11:53;;;;;;;;;;;;;;;21.34;41.02;102724.13;7280361;19;154689;-57
2022/04/28 01:14:20;;;;;;;;;;;;;;;21.35;40.89;102723.00;7281512;19;153546;-57
2022/04/28 01:16:47;;;;;;;;;;;;;;;21.33;41.10;102723.28;7283374;19;152750;-57
2022/04/28 01:19:14;;;;;;;;;;;;;;;21.31;41.34;102722.69;7281987;19;152201;-57
2022/04/28 01:21:40;;;;;;;;;;;;;;;21.27;41.51;102722.38;7282256;19;151582;-58
2022/04/28 01:24:12;;;;;;;;;;;;;;;21.27;41.16;102724.34;7281633;19;152741;-58
2022/04/28 01:26:40;;;;;;;;;;;;;;;21.24;41.65;102725.75;7280857;19;154008;-58
2022/04/28 01:29:06;;;;;;;;;;;;;;;21.21;41.48;102720.63;7279510;19;151860;-57
2022/04/28 01:31:33;;;;;;;;;;;;;;;21.22;41.24;102725.16;7288170;19;153772;-57
2022/04/28 01:34:00;;;;;;;;;;;;;;;21.20;41.66;102730.22;7281870;19;151787;-56
2022/04/28 01:36:27;;;;;;;;;;;;;;;21.19;41.40;102736.09;7282152;19;152688;-58
2022/04/28 01:38:54;;;;;;;;;;;;;;;21.18;41.71;102728.78;7280419;19;153936;-55
2022/04/28 01:41:21;;;;;;;;;;;;;;;21.14;41.73;102728.47;7278845;19;152084;-56
2022/04/28 01:43:48;;;;;;;;;;;;;;;21.14;41.59;102722.84;7283537;19;153342;-56
2022/04/28 01:46:15;;;;;;;;;;;;;;;21.12;41.30;102722.22;7281183;19;153959;-58
2022/04/28 01:48:42;;;;;;;;;;;;;;;21.11;41.28;102728.13;7283575;19;151468;-56
2022/04/28 01:56:51;;;;;;;;;;;;;;;21.06;41.70;102722.47;7279253;19;152915;-55
2022/04/28 01:59:18;;;;;;;;;;;;;;;21.04;41.71;102721.88;7279882;19;153814;-58
2022/04/28 02:01:45;;;;;;;;;;;;;;;21.01;41.70;102723.28;7280606;19;151864;-57
2022/04/28 02:04:12;;;;;;;;;;;;;;;21.00;41.67;102730.00;7279721;19;153625;-56
2022/04/28 02:06:40;;;;;;;;;;;;;;;20.98;41.72;102714.53;7279620;19;155082;-57
2022/04/28 02:09:06;;;;;;;;;;;;;;;20.97;41.62;102719.31;7282391;19;151446;-56
2022/04/28 02:11:33;;;;;;;;;;;;;;;20.94;41.83;102717.03;7280772;19;153598;-56
2022/04/28 02:14:00;;;;;;;;;;;;;;;20.96;41.74;102722.38;7278374;19;153344;-57
2022/04/28 02:16:26;;;;;;;;;;;;;;;20.95;41.92;102727.16;7287978;19;151557;-56
2022/04/28 02:18:53;;;;;;;;;;;;;;;20.96;41.46;102725.19;7277164;19;154062;-55
2022/04/28 02:21:25;;;;;;;;;;;;;;;20.94;41.62;102733.06;7283251;19;151963;-57
2022/04/28 02:23:52;;;;;;;;;;;;;;;20.91;41.67;102731.63;7287248;19;153493;-55
2022/04/28 02:26:18;;;;;;;;;;;;;;;20.93;41.72;102726.59;7284108;19;154026;-56
2022/04/28 02:28:45;;;;;;;;;;;;;;;20.95;41.64;102723.50;7286818;19;151970;-56
2022/04/28 02:31:12;;;;;;;;;;;;;;;20.90;41.92;102727.09;7286409;19;153275;-57
2022/04/28 02:33:40;;;;;;;;;;;;;;;20.88;42.12;102725.69;7285867;19;153983;-57
2022/04/28 02:36:07;;;;;;;;;;;;;;;20.88;41.94;102722.88;7286466;19;151867;-59
2022/04/28 02:38:33;;;;;;;;;;;;;;;20.84;42.27;102726.22;7292437;19;152773;-57
2022/04/28 02:41:00;;;;;;;;;;;;;;;20.83;42.06;102727.34;7285397;19;151792;-56
2022/04/28 02:43:27;;;;;;;;;;;;;;;20.79;42.48;102726.19;7284593;19;152587;-57
2022/04/28 02:45:53;;;;;;;;;;;;;;;20.81;41.93;102723.94;7283560;19;153922;-58
2022/04/28 02:48:20;;;;;;;;;;;;;;;20.79;42.01;102723.38;7284654;19;152004;-56
2022/04/28 02:50:47;;;;;;;;;;;;;;;20.80;42.37;102722.22;7286166;19;153218;-58
2022/04/28 02:53:14;;;;;;;;;;;;;;;20.78;42.04;102709.59;7284817;19;153411;-58
2022/04/28 02:55:40;;;;;;;;;;;;;;;20.77;42.10;102711.53;7285496;19;152348;-56
2022/04/28 02:58:08;;;;;;;;;;;;;;;20.75;42.43;102713.78;7285077;19;152945;-57
2022/04/28 03:00:37;;;;;;;;;;;;;;;20.75;42.18;102722.22;7293438;19;153346;-57
2022/04/28 03:03:04;;;;;;;;;;;;;;;20.74;42.51;102723.31;7284302;19;153081;-56
2022/04/28 03:05:31;;;;;;;;;;;;;;;20.75;42.43;102712.94;7285441;19;153302;-56
2022/04/28 03:10:53;;;;;;;;;;;;;;;20.72;42.51;102719.06;7286119;19;151823;-57
2022/04/28 03:13:24;;;;;;;;;;;;;;;20.69;42.68;102717.66;7285397;19;153805;-56
2022/04/28 03:15:50;;;;;;;;;;;;;;;20.66;43.07;102711.72;7283455;19;151754;-58
2022/04/28 03:18:17;;;;;;;;;;;;;;;20.65;43.04;102716.50;7285885;19;153833;-55
2022/04/28 03:20:44;;;;;;;;;;;;;;;20.64;42.70;102714.78;7292489;19;153444;-57
2022/04/28 03:23:11;;;;;;;;;;;;;;;20.65;42.82;102721.25;7284124;19;153341;-57
2022/04/28 03:25:38;;;;;;;;;;;;;;;20.64;43.09;102726.03;7284675;19;153113;-58
2022/04/28 03:28:06;;;;;;;;;;;;;;;20.63;43.09;102721.53;7285639;19;151877;-56
2022/04/28 03:30:32;;;;;;;;;;;;;;;20.60;42.90;102721.22;7284448;19;153346;-57
2022/04/28 03:33:00;;;;;;;;;;;;;;;20.59;42.82;102723.16;7283919;19;153011;-58
2022/04/28 03:35:26;;;;;;;;;;;;;;;20.58;43.47;102727.09;7283805;19;152016;-55
2022/04/28 03:37:53;;;;;;;;;;;;;;;20.58;42.95;102729.06;7285497;19;153204;-57
2022/04/28 03:40:20;;;;;;;;;;;;;;;20.56;42.99;102720.06;7284416;19;154920;-56
2022/04/28 03:42:48;;;;;;;;;;;;;;;20.55;43.09;102726.78;7292172;19;151533;-57
2022/04/28 03:45:16;;;;;;;;;;;;;;;20.56;43.48;102722.84;7284356;19;153870;-56
2022/04/28 03:47:43;;;;;;;;;;;;;;;20.54;43.19;102719.44;7285591;19;151587;-57
2022/04/28 03:50:09;;;;;;;;;;;;;;;20.53;42.93;102720.59;7286557;19;152617;-56
2022/04/28 03:52:36;;;;;;;;;;;;;;;20.51;43.37;102726.47;7284890;19;154035;-56
2022/04/28 03:55:03;;;;;;;;;;;;;;;20.51;43.16;102726.47;7283306;19;151804;-57
2022/04/28 03:57:30;;;;;;;;;;;;;;;20.51;42.95;102729.28;7282887;19;153383;-55
2022/04/28 03:59:57;;;;;;;;;;;;;;;20.51;43.10;102731.22;7282004;19;154075;-56
2022/04/28 04:02:24;;;;;;;;;;;;;;;20.50;43.17;102723.91;7281955;19;151949;-58
2022/04/28 04:04:51;;;;;;;;;;;;;;;20.50;43.13;102732.34;7290368;19;153311;-56
2022/04/28 04:07:17;;;;;;;;;;;;;;;20.47;43.38;102725.31;7283823;19;151484;-55
2022/04/28 04:09:44;;;;;;;;;;;;;;;20.47;43.18;102733.72;7284957;19;153263;-57
2022/04/28 04:12:15;;;;;;;;;;;;;;;20.46;42.87;102734.84;7282764;19;153833;-57
2022/04/28 04:14:42;;;;;;;;;;;;;;;20.46;43.05;102737.63;7283446;19;151651;-55
2022/04/28 04:17:09;;;;;;;;;;;;;;;20.45;42.89;102735.09;7284659;19;152302;-57
2022/04/28 04:19:35;;;;;;;;;;;;;;;20.40;43.03;102731.13;7283536;19;153284;-58
2022/04/28 04:22:02;;;;;;;;;;;;;;;20.37;43.23;102740.06;7283150;19;151859;-56
2022/04/28 04:24:30;;;;;;;;;;;;;;;20.39;43.15;102737.00;7284275;19;153268;-56
2022/04/28 04:26:58;;;;;;;;;;;;;;;20.37;43.24;102740.06;7290417;19;153992;-58
2022/04/28 04:29:24;;;;;;;;;;;;;;;20.35;43.11;102733.03;7283818;19;153249;-55
2022/04/28 04:34:36;;;;;;;;;;;;;;;20.34;42.96;102739.75;7284606;19;151647;-58
2022/04/28 04:37:03;;;;;;;;;;;;;;;20.33;43.08;102749.28;7281590;19;152559;-57
2022/04/28 04:39:30;;;;;;;;;;;;;;;20.33;43.32;102749.28;7283067;19;153231;-58
2022/04/28 04:41:57;;;;;;;;;;;;;;;20.31;43.21;102754.31;7283749;19;151541;-57
2022/04/28 04:44:24;;;;;;;;;;;;;;;20.32;42.85;102759.66;7281923;19;153480;-56
2022/04/28 04:46:50;;;;;;;;;;;;;;;20.30;43.21;102756.28;7280215;19;153834;-58
2022/04/28 04:49:17;;;;;;;;;;;;;;;20.27;43.29;102753.94;7290747;19;151889;-56
2022/04/28 04:51:44;;;;;;;;;;;;;;;20.27;43.57;102759.56;7281305;19;153619;-57
2022/04/28 04:54:11;;;;;;;;;;;;;;;20.29;43.25;102757.34;7282847;19;151902;-59
2022/04/28 04:56:38;;;;;;;;;;;;;;;20.33;43.51;102772.59;7283807;19;152637;-56
2022/04/28 04:59:05;;;;;;;;;;;;;;;20.38;43.35;102769.00;7282276;19;152301;-56
2022/04/28 05:01:32;;;;;;;;;;;;;;;20.40;43.56;102766.75;7283159;19;151520;-59
2022/04/28 05:03:59;;;;;;;;;;;;;;;20.45;43.79;102774.38;7280678;19;153350;-57
2022/04/28 05:06:26;;;;;;;;;;;;;;;20.50;43.77;102778.13;7281649;19;155704;-57
2022/04/28 05:08:54;;;;;;;;;;;;;;;20.56;43.87;102771.44;7281567;19;152146;-56
2022/04/28 05:11:25;;;;;;;;;;;;;;;20.63;44.29;102777.69;7289124;19;152683;-56
2022/04/28 05:13:52;;;;;;;;;;;;;;;20.70;43.93;102778.34;7282721;19;151872;-57
2022/04/28 05:16:19;;;;;;;;;;;;;;;20.76;43.98;102779.22;7283037;19;153799;-56
2022/04/28 05:18:49;;;;;;;;;;;;;;;20.83;44.32;102777.06;7276051;19;153578;-57
2022/04/28 05:21:17;;;;;;;;;;;;;;;20.90;44.11;102780.50;7282015;19;152140;-56
2022/04/28 05:23:51;;;;;;;;;;;;;;;20.98;43.82;102782.00;7280011;19;153156;-56
2022/04/28 05:26:23;;;;;;;;;;;;;;;21.06;43.67;102784.31;7280591;19;154097;-55
2022/04/28 05:28:50;;;;;;;;;;;;;;;21.13;43.10;102788.59;7282587;19;152313;-54
2022/04/28 05:31:19;;;;;;;;;;;;;;;21.19;43.42;102784.72;7288611;19;152683;-57
2022/04/28 05:33:51;;;;;;;;;;;;;;;21.27;43.18;102798.28;7282116;19;151811;-57
2022/04/28 05:36:17;;;;;;;;;;;;;;;21.33;43.04;102799.19;7279274;19;153200;-55
2022/04/28 05:38:44;;;;;;;;;;;;;;;21.41;43.05;102811.88;7280114;19;153453;-57
2022/04/28 05:41:11;;;;;;;;;;;;;;;21.47;42.29;102808.00;7280601;19;152085;-58
2022/04/28 05:46:25;;;;;;;;;;;;;;;21.60;42.41;102815.97;7280082;19;153172;-58
2022/04/28 05:48:52;;;;;;;;;;;;;;;21.66;42.13;102823.34;7281696;19;151872;-57
2022/04/28 05:51:25;;;;;;;;;;;;;;;21.71;42.26;102824.22;7283374;19;153472;-55
2022/04/28 05:53:52;;;;;;;;;;;;;;;21.77;42.11;102819.47;7288934;19;153296;-57
2022/04/28 05:56:19;;;;;;;;;;;;;;;21.85;41.88;102826.56;7286581;19;152690;-55
2022/04/28 05:58:45;;;;;;;;;;;;;;;21.88;41.80;102832.50;7286999;19;154025;-57
2022/04/28 06:01:12;;;;;;;;;;;;;;;21.95;41.77;102835.94;7288059;19;151729;-57
2022/04/28 06:03:41;;;;;;;;;;;;;;;22.01;42.14;102836.84;7286941;19;151889;-58
2022/04/28 06:06:08;;;;;;;;;;;;;;;22.05;41.71;102835.16;7285042;19;153343;-56
2022/04/28 06:08:34;;;;;;;;;;;;;;;22.11;41.31;102839.72;7289012;19;152053;-58
2022/04/28 06:11:01;;;;;;;;;;;;;;;22.16;41.25;102842.56;7287900;19;153457;-57
2022/04/28 06:13:27;;;;;;;;;;;;;;;22.22;41.55;102846.22;7287324;19;153929;-56
2022/04/28 06:15:54;;;;;;;;;;;;;;;22.25;41.17;102840.91;7291866;19;151676;-57
2022/04/28 06:18:21;;;;;;;;;;;;;;;22.35;41.29;102840.94;7286420;19;153595;-58
2022/04/28 06:20:48;;;;;;;;;;;;;;;22.41;41.06;102836.19;7285164;19;152104;-59
2022/04/28 06:23:15;;;;;;;;;;;;;;;22.45;40.88;102838.16;7285268;19;153601;-57
2022/04/28 06:25:41;;;;;;;;;;;;;;;22.52;40.50;102837.94;7285785;19;153162;-59
2022/04/28 06:28:12;;;;;;;;;;;;;;;22.55;40.73;102843.84;7285660;19;151746;-58
2022/04/28 06:30:38;;;;;;;;;;;;;;;22.45;36.46;102841.00;7285524;19;153424;-57
2022/04/28 06:33:05;;;;;;;;;;;;;;;22.23;36.79;102836.66;7283502;19;153665;-59
2022/04/28 06:35:34;;;;;;;;;;;;;;;22.30;36.74;102831.63;7284688;19;151879;-58
2022/04/28 06:38:01;;;;;;;;;;;;;;;22.30;36.76;102835.31;7290431;19;153612;-59
2022/04/28 06:40:28;;;;;;;;;;;;;;;22.30;37.26;102826.84;7284618;19;151819;-57
2022/04/28 06:42:55;;;;;;;;;;;;;;;22.30;37.15;102835.31;7283252;19;153771;-59
2022/04/28 06:45:22;;;;;;;;;;;;;;;22.29;37.46;102832.75;7280777;19;154066;-58
2022/04/28 06:47:49;;;;;;;;;;;;;;;22.29;37.04;102844.88;7283927;19;151738;-59
2022/04/28 06:50:15;;;;;;;;;;;;;;;22.28;37.30;102848.81;7284812;19;153313;-56
2022/04/28 06:52:42;;;;;;;;;;;;;;;22.27;37.36;102849.91;7283375;19;153580;-57
2022/04/28 06:55:10;;;;;;;;;;;;;;;22.23;36.89;102851.59;7276695;19;152373;-60
2022/04/28 06:57:37;;;;;;;;;;;;;;;22.22;36.86;102851.84;7275040;19;153450;-59
2022/04/28 07:00:04;;;;;;;;;;;;;;;22.20;36.82;102854.97;7285851;19;154302;-59
2022/04/28 07:02:31;;;;;;;;;;;;;;;22.17;36.91;102850.72;7272939;19;153304;-58
2022/04/28 07:04:58;;;;;;;;;;;;;;;22.15;37.01;102840.84;7278315;19;153955;-57
2022/04/28 07:07:25;;;;;;;;;;;;;;;22.14;36.98;102851.25;7276311;19;152702;-59
2022/04/28 07:09:52;;;;;;;;;;;;;;;22.12;37.13;102849.84;7263472;19;153241;-59
2022/04/28 07:12:34;;;;;;;;;;;;;;;22.10;36.71;102849.25;7276212;19;154253;-59
2022/04/28 07:15:00;;;;;;;;;;;;;;;22.09;37.02;102854.03;7281498;19;151951;-57
2022/04/28 07:17:27;;;;;;;;;;;;;;;22.06;37.12;102854.59;7284712;19;152939;-57
2022/04/28 07:19:54;;;;;;;;;;;;;;;22.19;37.27;102847.63;7280813;19;153610;-60
2022/04/28 07:22:20;;;;;;;;;;;;;;;22.18;37.60;102848.75;7288689;19;151933;-60
2022/04/28 07:24:47;;;;;;;;;;;;;;;22.21;37.58;102845.41;7279269;19;153259;-58
2022/04/28 07:27:14;;;;;;;;;;;;;;;22.17;37.72;102844.22;7280373;19;151571;-59
2022/04/28 07:29:41;;;;;;;;;;;;;;;22.14;37.54;102856.91;7280969;19;152778;-58
2022/04/28 07:32:07;;;;;;;;;;;;;;;22.09;37.32;102850.38;7280830;19;153561;-57
2022/04/28 07:34:35;;;;;;;;;;;;;;;22.06;36.93;102862.19;7280494;19;152122;-57
2022/04/28 07:37:04;;;;;;;;;;;;;;;22.02;37.02;102855.41;7278248;19;153797;-57
2022/04/28 07:39:30;;;;;;;;;;;;;;;21.99;36.57;102858.75;7279257;19;154011;-59
2022/04/28 07:41:57;;;;;;;;;;;;;;;21.96;36.63;102865.78;7289343;19;153062;-57
2022/04/28 07:44:24;;;;;;;;;;;;;;;21.94;37.07;102878.47;7280653;19;154372;-57
2022/04/28 07:46:51;;;;;;;;;;;;;;;21.91;36.63;102881.75;7279892;19;151631;-57
2022/04/28 07:49:17;;;;;;;;;;;;;;;21.87;36.90;102870.19;7282574;19;153477;-60
2022/04/28 07:51:44;;;;;;;;;;;;;;;21.85;36.86;102871.59;7280875;19;154528;-60
2022/04/28 07:54:11;;;;;;;;;;;;;;;21.84;36.69;102879.19;7280221;19;152328;-60
2022/04/28 07:56:38;;;;;;;;;;;;;;;21.82;36.40;102874.94;7282400;19;152687;-60
2022/04/28 07:59:07;;;;;;;;;;;;;;;21.81;36.22;102873.22;7279236;19;154590;-56
2022/04/28 08:01:51;;;;;;;;;;;;;;;21.77;36.55;102886.16;7281860;19;151514;-58
2022/04/28 08:04:18;;;;;;;;;;;;;;;21.74;36.20;102890.38;7286839;19;153767;-58
2022/04/28 08:06:45;;;;;;;;;;;;;;;21.71;36.31;102883.28;7282225;19;151684;-57
2022/04/28 08:09:11;;;;;;;;;;;;;;;21.68;36.55;102889.47;7280703;19;153849;-57
2022/04/28 08:11:40;;;;;;;;;;;;;;;21.67;36.25;102899.03;7280632;19;154516;-58
2022/04/28 08:14:06;;;;;;;;;;;;;;;21.65;36.20;102890.03;7277769;19;152181;-58
2022/04/28 08:16:33;;;;;;;;;;;;;;;21.62;36.47;102893.34;7281710;19;153476;-58
2022/04/28 08:19:02;;;;;;;;;;;;;;;21.61;36.60;102899.25;7276963;19;152378;-60
2022/04/28 08:21:29;;;;;;;;;;;;;;;21.59;36.52;102909.94;7281721;19;151788;-60
2022/04/28 08:23:57;;;;;;;;;;;;;;;21.57;36.35;102898.13;7278247;19;153154;-58
2022/04/28 08:26:23;;;;;;;;;;;;;;;21.55;36.67;102904.00;7286760;19;153383;-57
2022/04/28 08:28:50;;;;;;;;;;;;;;;21.52;36.20;102898.91;7280678;19;152463;-60
2022/04/28 08:31:20;;;;;;;;;;;;;;;21.50;36.24;102903.09;7279883;19;153990;-60
2022/04/28 08:33:51;;;;;;;;;;;;;;;21.46;36.59;102911.22;7280544;19;151898;-58
2022/04/28 08:36:18;;;;;;;;;;;;;;;21.45;36.50;102903.03;7281351;19;153080;-59
2022/04/28 08:38:45;;;;;;;;;;;;;;;21.42;36.61;102898.81;7280018;19;153999;-58
2022/04/28 08:41:12;;;;;;;;;;;;;;;21.41;36.67;102902.75;7280654;19;152404;-58
2022/04/28 08:43:41;;;;;;;;;;;;;;;21.39;36.50;102896.53;7281250;19;151968;-58
2022/04/28 08:48:54;;;;;;;;;;;;;;;21.34;36.31;102898.47;7288369;19;151584;-58
2022/04/28 08:51:26;;;;;;;;;;;;;;;21.34;36.65;102901.28;7279131;19;154607;-58
2022/04/28 08:53:53;;;;;;;;;;;;;;;21.30;36.72;102898.97;7280611;19;151757;-58
2022/04/28 08:56:21;;;;;;;;;;;;;;;21.28;36.43;102906.84;7280064;19;152708;-57
2022/04/28 08:58:47;;;;;;;;;;;;;;;21.26;36.71;102899.75;7279841;19;154169;-57
2022/04/28 09:01:16;;;;;;;;;;;;;;;21.24;36.29;102902.00;7278595;19;151861;-59
2022/04/28 09:03:48;;;;;;;;;;;;;;;21.22;36.71;102898.59;7278332;19;151837;-57
2022/04/28 09:06:36;;;;;;;;;;;;;;;21.21;36.67;102894.94;7277186;19;156191;-59
2022/04/28 09:09:04;;;;;;;;;;;;;;;21.17;36.82;102890.13;7281071;19;152008;-59
2022/04/28 09:11:34;;;;;;;;;;;;;;;21.17;36.54;102898.53;7285962;19;152788;-58
2022/04/28 09:14:09;;;;;;;;;;;;;;;21.15;36.39;102896.03;7279600;19;151770;-58
2022/04/28 09:16:37;;;;;;;;;;;;;;;21.12;36.67;102893.69;7279797;19;153373;-57
2022/04/28 09:19:04;;;;;;;;;;;;;;;21.13;36.70;102886.13;7279777;19;153280;-60
2022/04/28 09:21:34;;;;;;;;;;;;;;;21.12;36.64;102895.69;7279742;19;151747;-59
2022/04/28 09:24:02;;;;;;;;;;;;;;;21.09;36.46;102894.22;7278992;19;153356;-57
2022/04/28 09:26:30;;;;;;;;;;;;;;;21.06;36.65;102885.47;7278789;19;154363;-59
2022/04/28 09:29:02;;;;;;;;;;;;;;;21.04;36.93;102894.16;7279398;19;151926;-57
2022/04/28 09:31:30;;;;;;;;;;;;;;;21.05;36.85;102895.03;7284579;19;152613;-59
2022/04/28 09:34:18;;;;;;;;;;;;;;;21.03;36.69;102898.09;7288944;19;151844;-59
2022/04/28 09:36:45;;;;;;;;;;;;;;;21.02;36.42;102892.75;7286280;19;152616;-58
2022/04/28 09:42:29;;;;;;;;;;;;;;;21.02;36.75;102899.22;7284154;19;153938;-60
2022/04/28 09:44:49;;;;;;;;;;;;;;;20.99;36.43;102904.50;7284776;19;152595;-57
2022/04/28 09:47:17;;;;;;;;;;;;;;;20.98;36.40;102903.69;7285160;19;153446;-59
2022/04/28 09:49:50;;;;;;;;;;;;;;;20.97;36.86;102903.94;7285486;19;151999;-56
2022/04/28 09:52:17;;;;;;;;;;;;;;;20.94;36.68;102891.25;7266170;19;153292;-59
2022/04/28 09:54:45;;;;;;;;;;;;;;;20.94;36.49;102893.22;7279620;19;153872;-58
2022/04/28 09:57:12;;;;;;;;;;;;;;;20.90;36.45;102895.69;7283896;19;153437;-56
2022/04/28 09:59:39;;;;;;;;;;;;;;;20.91;36.64;102896.53;7284418;19;153263;-58
2022/04/28 10:02:22;;;;;;;;;;;;;;;20.90;36.79;102889.22;7286534;19;151969;-56
2022/04/28 10:04:50;;;;;;;;;;;;;;;20.88;36.79;102897.09;7283271;19;153806;-58
2022/04/28 10:07:17;;;;;;;;;;;;;;;20.88;36.49;102883.03;7283477;19;153276;-58
2022/04/28 10:09:45;;;;;;;;;;;;;;;20.89;36.83;102882.78;7284654;19;151842;-57
2022/04/28 10:12:13;;;;;;;;;;;;;;;20.88;36.77;102894.28;7281432;19;153606;-60
2022/04/28 10:14:40;;;;;;;;;;;;;;;20.84;36.34;102892.00;7282297;19;154291;-58
2022/04/28 10:17:11;;;;;;;;;;;;;;;20.86;36.68;102891.72;7289118;19;152033;-59
2022/04/28 10:19:41;;;;;;;;;;;;;;;20.85;36.68;102893.69;7280939;19;154215;-59
2022/04/28 10:22:13;;;;;;;;;;;;;;;20.83;36.77;102895.91;7283249;19;151841;-57
2022/04/28 10:33:15;;;;;;;;;;;;;;;20.85;36.31;102885.25;7280859;19;153663;-58
2022/04/28 10:35:48;;;;;;;;;;;;;;;20.86;36.38;102888.91;7280413;19;152584;-57
2022/04/28 10:38:22;;;;;;;;;;;;;;;20.91;36.41;102888.13;7282226;19;151820;-61
2022/04/28 10:41:01;;;;;;;;;;;;;;;20.92;36.17;102890.69;7290223;19;152597;-59
2022/04/28 10:43:33;;;;;;;;;;;;;;;20.96;36.86;102888.19;7281303;19;151643;-59
2022/04/28 10:46:06;;;;;;;;;;;;;;;20.93;36.53;102895.19;7279880;19;152683;-59
2022/04/28 10:48:35;;;;;;;;;;;;;;;20.95;36.73;102897.72;7281518;19;155054;-58
2022/04/28 10:51:04;;;;;;;;;;;;;;;20.93;36.74;102898.00;7282838;19;152264;-59
2022/04/28 10:53:31;;;;;;;;;;;;;;;20.96;36.95;102894.66;7281441;19;153380;-60
2022/04/28 10:56:08;;;;;;;;;;;;;;;20.98;36.72;102889.63;7276807;19;154865;-58
2022/04/28 10:58:35;;;;;;;;;;;;;;;21.02;36.89;102895.56;7282988;19;151839;-57
2022/04/28 11:01:04;;;;;;;;;;;;;;;21.05;36.97;102895.88;7282037;19;152076;-60
2022/04/28 11:03:50;;;;;;;;;;;;;;;21.12;36.75;102898.50;7289488;19;153364;-56
2022/04/28 11:06:21;;;;;;;;;;;;;;;21.21;36.55;102886.50;7280691;19;153600;-60
2022/04/28 11:08:53;;;;;;;;;;;;;;;21.29;36.49;102886.03;7281902;19;154210;-57
2022/04/28 11:11:29;;;;;;;;;;;;;;;21.36;36.56;102884.97;7280881;19;152284;-59
2022/04/28 11:13:59;;;;;;;;;;;;;;;21.45;36.48;102883.34;7281393;19;153254;-57
2022/04/28 11:16:27;;;;;;;;;;;;;;;21.50;36.50;102886.22;7280669;19;153736;-58
2022/04/28 11:18:55;;;;;;;;;;;;;;;21.56;36.73;102887.97;7282150;19;152001;-58
2022/04/28 11:21:24;;;;;;;;;;;;;;;21.62;36.68;102884.91;7281956;19;152745;-59
2022/04/28 11:23:53;;;;;;;;;;;;;;;21.69;36.66;102887.50;7280686;19;152339;-60
2022/04/28 11:26:20;;;;;;;;;;;;;;;21.74;36.38;102884.75;7287011;19;151794;-57
2022/04/28 11:28:49;;;;;;;;;;;;;;;21.81;36.62;102884.50;7280985;19;154229;-57
2022/04/28 11:31:19;;;;;;;;;;;;;;;21.86;36.57;102885.38;7278774;19;151856;-60
2022/04/28 11:33:54;;;;;;;;;;;;;;;21.93;36.47;102888.88;7281356;19;153625;-58
2022/04/28 11:36:28;;;;;;;;;;;;;;;21.99;36.45;102892.53;7280894;19;155410;-57
2022/04/28 11:38:59;;;;;;;;;;;;;;;22.04;36.02;102898.22;7282522;19;152015;-60
2022/04/28 11:41:31;;;;;;;;;;;;;;;22.10;36.41;102888.69;7281985;19;152970;-58
2022/04/28 11:43:58;;;;;;;;;;;;;;;22.12;36.34;102898.53;7278615;19;153715;-59
2022/04/28 11:46:25;;;;;;;;;;;;;;;22.15;35.94;102899.97;7286892;19;151513;-60
2022/04/28 11:48:52;;;;;;;;;;;;;;;22.17;35.94;102894.91;7279734;19;153852;-61
2022/04/28 11:51:26;;;;;;;;;;;;;;;22.21;36.22;102900.88;7280099;19;151722;-58
2022/04/28 11:53:53;;;;;;;;;;;;;;;22.23;35.99;102905.09;7280050;19;153867;-59
2022/04/28 11:56:29;;;;;;;;;;;;;;;22.26;35.97;102904.53;7276145;19;155483;-59
2022/04/28 11:58:58;;;;;;;;;;;;;;;22.28;35.68;102902.31;7279086;19;151619;-59
2022/04/28 12:01:30;;;;;;;;;;;;;;;22.29;35.85;102905.97;7281411;19;153346;-59
2022/04/28 12:03:58;;;;;;;;;;;;;;;22.30;35.96;102902.91;7277876;19;152996;-57
2022/04/28 12:06:25;;;;;;;;;;;;;;;22.31;35.77;102912.16;7279511;19;152035;-60
2022/04/28 12:08:59;;;;;;;;;;;;;;;22.31;35.91;102903.72;7285725;19;154954;-58
2022/04/28 12:14:25;;;;;;;;;;;;;;;22.32;35.69;102908.22;7279407;19;153543;-59
2022/04/28 12:19:47;;;;;;;;;;;;;;;22.31;36.03;102898.94;7280617;19;151566;-60
2022/04/28 12:22:22;;;;;;;;;;;;;;;22.31;35.60;102895.25;7280961;19;152841;-57
2022/04/28 12:24:49;;;;;;;;;;;;;;;22.30;35.74;102891.63;7278606;19;153673;-58
2022/04/28 12:27:16;;;;;;;;;;;;;;;22.29;35.71;102884.28;7280361;19;151784;-58
2022/04/28 12:29:55;;;;;;;;;;;;;;;22.29;36.19;102887.13;7280724;19;153403;-58
2022/04/28 12:32:22;;;;;;;;;;;;;;;22.26;36.01;102884.81;7287059;19;153315;-59
2022/04/28 12:35:03;;;;;;;;;;;;;;;22.26;35.81;102876.38;7280171;19;153574;-59
2022/04/28 12:37:30;;;;;;;;;;;;;;;22.26;35.86;102884.00;7278897;19;153619;-59
2022/04/28 12:40:01;;;;;;;;;;;;;;;22.24;36.00;102881.44;7278964;19;151822;-57
2022/04/28 12:42:43;;;;;;;;;;;;;;;22.23;35.83;102876.94;7278187;19;152047;-60
2022/04/28 12:45:11;;;;;;;;;;;;;;;22.22;36.02;102880.88;7278749;19;153928;-60
2022/04/28 12:47:40;;;;;;;;;;;;;;;22.20;35.97;102876.63;7279380;19;152409;-60
2022/04/28 12:50:19;;;;;;;;;;;;;;;22.19;36.19;102878.59;7275835;19;155801;-58
2022/04/28 12:52:46;;;;;;;;;;;;;;;22.19;36.19;102881.41;7279296;19;154623;-59
2022/04/28 12:55:14;;;;;;;;;;;;;;;22.16;36.17;102879.16;7283685;19;152133;-60
2022/04/28 12:57:42;;;;;;;;;;;;;;;22.14;36.02;102875.75;7275815;19;153143;-57
2022/04/28 13:00:09;;;;;;;;;;;;;;;22.14;35.76;102878.56;7278202;19;151859;-57
2022/04/28 13:02:36;;;;;;;;;;;;;;;22.14;36.16;102872.94;7280416;19;153361;-59
2022/04/28 13:05:08;;;;;;;;;;;;;;;22.12;36.10;102872.38;7276355;19;154135;-59
2022/04/28 13:07:54;;;;;;;;;;;;;;;22.12;36.33;102876.00;7279343;19;152171;-58
2022/04/28 13:10:21;;;;;;;;;;;;;;;22.11;36.28;102874.34;7276459;19;152641;-60